createdAt,value
2023-04-10T00:00:57.771Z,100165.88
2023-04-10T00:03:27.794Z,100161.94
2023-04-10T00:05:56.373Z,100156.00
2023-04-10T00:08:26.181Z,100151.94
2023-04-10T00:10:54.938Z,100158.03
2023-04-10T00:13:23.534Z,100156.50
2023-04-10T00:15:52.255Z,100148.38
2023-04-10T00:18:22.291Z,100146.69
2023-04-10T00:20:50.968Z,100156.78
2023-04-10T00:23:19.574Z,100156.88
2023-04-10T00:25:49.803Z,100157.38
2023-04-10T00:28:18.481Z,100161.22
2023-04-10T00:30:47.047Z,100166.25
2023-04-10T00:33:15.967Z,100164.22
2023-04-10T00:35:46.490Z,100161.09
2023-04-10T00:38:15.231Z,100162.88
2023-04-10T00:40:43.759Z,100162.31
2023-04-10T00:43:12.665Z,100169.25
2023-04-10T00:45:41.336Z,100155.97
2023-04-10T00:48:10.127Z,100158.16
2023-04-10T00:50:39.047Z,100155.50
2023-04-10T00:53:09.098Z,100155.88
2023-04-10T00:55:38.416Z,100151.44
2023-04-10T00:58:08.005Z,100139.19
2023-04-10T01:00:36.598Z,100138.72
2023-04-10T01:03:05.627Z,100133.72
2023-04-10T01:05:43.787Z,100132.88
2023-04-10T01:08:25.956Z,100125.81
2023-04-10T01:11:02.565Z,100118.03
2023-04-10T01:13:36.904Z,100119.81
2023-04-10T01:16:16.288Z,100129.38
2023-04-10T01:18:50.267Z,100118.63
2023-04-10T01:21:19.837Z,100109.66
2023-04-10T01:24:23.217Z,100110.84
2023-04-10T01:27:12.440Z,100097.91
2023-04-10T01:29:48.611Z,100100.19
2023-04-10T01:32:22.118Z,100094.22
2023-04-10T01:34:54.216Z,100091.06
2023-04-10T01:37:26.386Z,100095.00
2023-04-10T01:40:01.113Z,100100.03
2023-04-10T01:42:32.764Z,100093.94
2023-04-10T01:45:05.091Z,100093.94
2023-04-10T01:47:34.496Z,100095.75
2023-04-10T01:50:03.717Z,100085.78
2023-04-10T01:52:34.702Z,100087.47
2023-04-10T01:55:05.099Z,100091.63
2023-04-10T01:57:36.232Z,100088.16
2023-04-10T02:00:07.198Z,100089.97
2023-04-10T02:02:36.197Z,100085.66
2023-04-10T02:05:04.899Z,100079.53
2023-04-10T02:07:41.325Z,100075.72
2023-04-10T02:10:15.246Z,100083.03
2023-04-10T02:12:53.844Z,100079.66
2023-04-10T02:15:28.385Z,100078.59
2023-04-10T02:17:59.365Z,100069.72
2023-04-10T02:20:28.682Z,100075.72
2023-04-10T02:23:00.309Z,100068.19
2023-04-10T02:25:29.115Z,100069.25
2023-04-10T02:27:57.655Z,100044.47
2023-04-10T02:30:27.787Z,100031.88
2023-04-10T02:32:56.798Z,100063.28
2023-04-10T02:35:25.937Z,100060.06
2023-04-10T02:37:54.586Z,100064.50
2023-04-10T02:40:23.381Z,100055.50
2023-04-10T02:42:51.930Z,100070.69
2023-04-10T02:45:20.600Z,100066.75
2023-04-10T02:47:50.867Z,100068.44
2023-04-10T02:50:19.764Z,100057.88
2023-04-10T02:52:48.567Z,100064.59
2023-04-10T02:55:17.395Z,100045.69
2023-04-10T02:57:46.871Z,100051.53
2023-04-10T03:00:16.111Z,100043.75
2023-04-10T03:02:45.192Z,100042.53
2023-04-10T03:05:15.642Z,100054.38
2023-04-10T03:07:44.193Z,100037.22
2023-04-10T03:10:13.756Z,100035.69
2023-04-10T03:12:42.340Z,100039.41
2023-04-10T03:15:12.093Z,100040.13
2023-04-10T03:17:40.994Z,100040.50
2023-04-10T03:20:11.661Z,100033.06
2023-04-10T03:22:41.666Z,100026.13
2023-04-10T03:25:11.015Z,100028.91
2023-04-10T03:27:40.428Z,100033.94
2023-04-10T03:30:10.235Z,100025.44
2023-04-10T03:32:39.286Z,100042.84
2023-04-10T03:35:08.729Z,100034.56
2023-04-10T03:37:37.417Z,100035.53
2023-04-10T03:40:11.301Z,100031.59
2023-04-10T03:42:40.205Z,100021.91
2023-04-10T03:45:13.619Z,100022.03
2023-04-10T03:47:42.517Z,100025.72
2023-04-10T03:50:11.845Z,100020.00
2023-04-10T03:52:41.738Z,100023.84
2023-04-10T03:55:12.495Z,100025.50
2023-04-10T03:57:41.225Z,100035.47
2023-04-10T04:00:11.542Z,100017.63
2023-04-10T04:02:40.327Z,100018.13
2023-04-10T04:05:09.758Z,100017.31
2023-04-10T04:07:38.482Z,100001.28
2023-04-10T04:10:08.084Z,100006.06
2023-04-10T04:12:38.227Z,100003.19
2023-04-10T04:15:07.516Z,100001.03
2023-04-10T04:17:36.181Z,99995.75
2023-04-10T04:20:05.117Z,99996.94
2023-04-10T04:22:33.685Z,99995.59
2023-04-10T04:25:02.490Z,99997.19
2023-04-10T04:27:31.080Z,99994.78
2023-04-10T04:30:01.123Z,99998.38
2023-04-10T04:32:29.710Z,100009.03
2023-04-10T04:34:58.248Z,99993.81
2023-04-10T04:37:26.878Z,99998.03
2023-04-10T04:39:56.052Z,100006.16
2023-04-10T04:42:24.632Z,99993.97
2023-04-10T04:44:53.890Z,99989.75
2023-04-10T04:47:24.929Z,99993.34
2023-04-10T04:49:53.415Z,99988.22
2023-04-10T04:52:21.857Z,99985.81
2023-04-10T04:54:50.444Z,99980.56
2023-04-10T04:57:18.993Z,99970.88
2023-04-10T04:59:47.578Z,99965.47
2023-04-10T05:02:19.139Z,99966.56
2023-04-10T05:04:49.258Z,99980.56
2023-04-10T05:07:17.849Z,99970.63
2023-04-10T05:09:46.594Z,99974.09
2023-04-10T05:12:15.219Z,99973.25
2023-04-10T05:14:44.838Z,99963.09
2023-04-10T05:17:15.413Z,99966.69
2023-04-10T05:19:43.933Z,99968.34
2023-04-10T05:22:14.204Z,99969.31
2023-04-10T05:24:42.872Z,99965.00
2023-04-10T05:27:12.112Z,99973.59
2023-04-10T05:29:40.671Z,99978.88
2023-04-10T05:32:09.233Z,99971.44
2023-04-10T05:34:37.591Z,99969.91
2023-04-10T05:37:06.132Z,99967.66
2023-04-10T05:39:36.233Z,99960.00
2023-04-10T05:42:04.992Z,99965.47
2023-04-10T05:44:33.561Z,99955.56
2023-04-10T05:47:02.302Z,99957.84
2023-04-10T05:49:30.924Z,99953.31
2023-04-10T05:51:59.573Z,99960.38
2023-04-10T05:54:28.186Z,99954.97
2023-04-10T05:56:58.289Z,99965.97
2023-04-10T05:59:26.954Z,99966.06
2023-04-10T06:01:55.769Z,99968.00
2023-04-10T06:04:24.454Z,99960.13
2023-04-10T06:06:53.522Z,99963.44
2023-04-10T06:09:22.270Z,99970.16
2023-04-10T06:11:51.275Z,99965.75
2023-04-10T06:14:21.431Z,99967.19
2023-04-10T06:16:49.952Z,99967.50
2023-04-10T06:19:18.572Z,99966.31
2023-04-10T06:21:47.580Z,99966.59
2023-04-10T06:24:16.541Z,99969.09
2023-04-10T06:26:45.120Z,99969.78
2023-04-10T06:29:13.779Z,99963.81
2023-04-10T06:31:43.988Z,99968.13
2023-04-10T06:34:12.472Z,99967.75
2023-04-10T06:36:44.019Z,99976.00
2023-04-10T06:39:12.536Z,99982.00
2023-04-10T06:41:40.906Z,99977.44
2023-04-10T06:44:09.581Z,99983.19
2023-04-10T06:46:38.522Z,99981.50
2023-04-10T06:49:08.646Z,99983.06
2023-04-10T06:51:37.222Z,99980.06
2023-04-10T06:54:06.050Z,99977.22
2023-04-10T06:56:34.607Z,99983.69
2023-04-10T06:59:03.393Z,99979.84
2023-04-10T07:01:32.243Z,99977.22
2023-04-10T07:04:00.808Z,99976.97
2023-04-10T07:06:31.659Z,99974.09
2023-04-10T07:09:00.180Z,99980.06
2023-04-10T07:11:28.697Z,99987.13
2023-04-10T07:13:58.880Z,99985.56
2023-04-10T07:16:27.773Z,99993.91
2023-04-10T07:18:56.897Z,99984.91
2023-04-10T07:21:27.550Z,99993.16
2023-04-10T07:23:57.747Z,99999.84
2023-04-10T07:26:26.934Z,100000.91
2023-04-10T07:28:55.816Z,100000.31
2023-04-10T07:31:25.001Z,100011.25
2023-04-10T07:33:53.771Z,100005.84
2023-04-10T07:36:22.320Z,100015.88
2023-04-10T07:38:51.059Z,100007.84
2023-04-10T07:41:20.781Z,100005.41
2023-04-10T07:43:49.580Z,100009.13
2023-04-10T07:46:19.075Z,100020.81
2023-04-10T07:48:49.908Z,100014.22
2023-04-10T07:51:18.482Z,100015.16
2023-04-10T07:53:46.919Z,100012.63
2023-04-10T07:56:20.927Z,100013.69
2023-04-10T07:58:51.046Z,100015.38
2023-04-10T08:01:19.627Z,100013.53
2023-04-10T08:03:48.584Z,100013.94
2023-04-10T08:06:17.573Z,100020.22
2023-04-10T08:08:46.102Z,100024.66
2023-04-10T08:11:28.090Z,100027.16
2023-04-10T08:13:58.632Z,100023.69
2023-04-10T08:16:28.771Z,100019.19
2023-04-10T08:18:59.062Z,100016.31
2023-04-10T08:21:29.430Z,100019.56
2023-04-10T08:23:59.593Z,100011.81
2023-04-10T08:26:30.630Z,100014.31
2023-04-10T08:29:01.190Z,100017.69
2023-04-10T08:31:30.911Z,100010.31
2023-04-10T08:34:00.146Z,100018.06
2023-04-10T08:36:29.484Z,100019.00
2023-04-10T08:38:58.179Z,100019.13
2023-04-10T08:41:26.834Z,100018.06
2023-04-10T08:43:58.645Z,100015.84
2023-04-10T08:46:27.699Z,100017.59
2023-04-10T08:49:03.499Z,100016.19
2023-04-10T08:51:38.570Z,100010.69
2023-04-10T08:54:09.543Z,100009.72
2023-04-10T08:56:43.332Z,100003.53
2023-04-10T08:59:13.475Z,99997.13
2023-04-10T09:01:42.694Z,99994.25
2023-04-10T09:04:13.565Z,99994.03
2023-04-10T09:06:42.540Z,99985.25
2023-04-10T09:09:11.308Z,99981.72
2023-04-10T09:12:01.571Z,99973.50
2023-04-10T09:14:33.529Z,99965.97
2023-04-10T09:17:17.895Z,99970.16
2023-04-10T09:19:47.920Z,99952.06
2023-04-10T09:22:17.213Z,99947.06
2023-04-10T09:24:47.709Z,99932.00
2023-04-10T09:27:31.773Z,99940.84
2023-04-10T09:30:11.685Z,99930.53
2023-04-10T09:32:44.456Z,99929.03
2023-04-10T09:35:15.290Z,99929.16
2023-04-10T09:37:47.129Z,99922.31
2023-04-10T09:40:24.827Z,99921.50
2023-04-10T09:42:57.101Z,99909.31
2023-04-10T09:45:27.419Z,99901.56
2023-04-10T09:48:07.148Z,99903.84
2023-04-10T09:50:40.458Z,99906.50
2023-04-10T09:53:09.757Z,99901.47
2023-04-10T09:55:38.910Z,99888.53
2023-04-10T09:58:08.027Z,99897.53
2023-04-10T10:00:42.465Z,99885.44
2023-04-10T10:03:13.240Z,99882.09
2023-04-10T10:05:44.070Z,99889.81
2023-04-10T10:08:15.232Z,99893.00
2023-04-10T10:10:48.257Z,99898.53
2023-04-10T10:13:21.061Z,99904.00
2023-04-10T10:16:02.575Z,99907.59
2023-04-10T10:18:41.057Z,99910.38
2023-04-10T10:21:10.932Z,99908.31
2023-04-10T10:23:40.269Z,99913.66
2023-04-10T10:26:11.517Z,99909.81
2023-04-10T10:28:43.315Z,99894.84
2023-04-10T10:31:14.065Z,99882.78
2023-04-10T10:33:42.863Z,99878.03
2023-04-10T10:36:14.158Z,99875.31
2023-04-10T10:38:56.009Z,99862.25
2023-04-10T10:41:30.227Z,99865.03
2023-04-10T10:44:10.510Z,99866.97
2023-04-10T10:46:46.401Z,99855.13
2023-04-10T10:49:14.972Z,99850.41
2023-04-10T10:51:48.430Z,99853.16
2023-04-10T10:54:36.609Z,99848.41
2023-04-10T10:57:45.691Z,99859.75
2023-04-10T11:00:15.325Z,99870.19
2023-04-10T11:02:45.548Z,99853.75
2023-04-10T11:05:52.565Z,99838.59
2023-04-10T11:08:46.278Z,99823.34
2023-04-10T11:11:23.971Z,99834.03
2023-04-10T11:14:21.672Z,99809.69
2023-04-10T11:16:50.673Z,99822.31
2023-04-10T11:19:25.437Z,99826.94
2023-04-10T11:22:17.932Z,99803.56
2023-04-10T11:25:02.500Z,99791.25
2023-04-10T11:27:49.750Z,99776.91
2023-04-10T11:30:38.058Z,99783.38
2023-04-10T11:33:07.583Z,99796.91
2023-04-10T11:35:38.305Z,99839.25
2023-04-10T11:38:24.566Z,99843.75
2023-04-10T11:41:04.686Z,99862.22
2023-04-10T11:43:34.041Z,99851.00
2023-04-10T11:46:08.158Z,99859.88
2023-04-10T11:48:38.616Z,99870.53
2023-04-10T11:51:13.212Z,99862.06
2023-04-10T11:53:43.050Z,99882.41
2023-04-10T11:56:22.772Z,99885.41
2023-04-10T11:58:54.679Z,99892.81
2023-04-10T12:01:24.640Z,99877.59
2023-04-10T12:03:53.711Z,99904.66
2023-04-10T12:06:24.139Z,99902.00
2023-04-10T12:08:53.405Z,99900.16
2023-04-10T12:11:24.023Z,99910.56
2023-04-10T12:13:54.795Z,99911.88
2023-04-10T12:16:24.412Z,99906.16
2023-04-10T12:18:53.791Z,99907.84
2023-04-10T12:21:24.344Z,99913.81
2023-04-10T12:23:53.202Z,99918.09
2023-04-10T12:26:23.009Z,99910.91
2023-04-10T12:28:54.683Z,99902.16
2023-04-10T12:31:31.018Z,99906.34
2023-04-10T12:34:01.592Z,99897.81
2023-04-10T12:36:34.999Z,99902.47
2023-04-10T12:39:06.371Z,99893.97
2023-04-10T12:41:36.895Z,99889.25
2023-04-10T12:44:11.059Z,99886.25
2023-04-10T12:46:41.179Z,99882.28
2023-04-10T12:49:14.775Z,99887.88
2023-04-10T12:51:47.355Z,99867.47
2023-04-10T12:54:33.470Z,99868.50
2023-04-10T12:57:02.562Z,99873.50
2023-04-10T12:59:32.108Z,99877.13
2023-04-10T13:02:00.986Z,99864.47
2023-04-10T13:04:32.512Z,99863.63
2023-04-10T13:07:02.483Z,99859.31
2023-04-10T13:09:31.101Z,99850.84
2023-04-10T13:11:59.925Z,99851.41
2023-04-10T13:14:28.631Z,99855.38
2023-04-10T13:16:57.127Z,99860.53
2023-04-10T13:19:25.827Z,99852.06
2023-04-10T13:21:54.524Z,99874.44
2023-04-10T13:24:24.520Z,99850.09
2023-04-10T13:26:53.175Z,99855.31
2023-04-10T13:29:21.712Z,99860.44
2023-04-10T13:31:50.452Z,99876.44
2023-04-10T13:34:19.016Z,99916.31
2023-04-10T13:36:48.737Z,99939.22
2023-04-10T13:39:19.002Z,99924.47
2023-04-10T13:41:49.082Z,99921.63
2023-04-10T13:44:17.740Z,99886.22
2023-04-10T13:46:46.342Z,99883.38
2023-04-10T13:49:17.565Z,99846.53
2023-04-10T13:51:46.779Z,99877.94
2023-04-10T13:54:17.546Z,99884.91
2023-04-10T13:56:46.821Z,99872.19
2023-04-10T13:59:16.877Z,99870.63
2023-04-10T14:01:45.610Z,99870.69
2023-04-10T14:04:14.263Z,99872.94
2023-04-10T14:06:42.892Z,99870.16
2023-04-10T14:09:11.812Z,99870.13
2023-04-10T14:11:40.427Z,99896.66
2023-04-10T14:14:08.956Z,99941.72
2023-04-10T14:16:39.417Z,99983.53
2023-04-10T14:19:08.181Z,100013.88
2023-04-10T14:21:37.729Z,100010.41
2023-04-10T14:24:06.477Z,100019.28
2023-04-10T14:26:35.187Z,100030.56
2023-04-10T14:29:04.174Z,100025.91
2023-04-10T14:31:32.904Z,100015.63
2023-04-10T14:34:03.221Z,99996.41
2023-04-10T14:36:32.312Z,99975.19
2023-04-10T14:39:02.483Z,99958.69
2023-04-10T14:41:31.877Z,99955.75
2023-04-10T14:44:00.712Z,99937.69
2023-04-10T14:46:29.335Z,99935.75
2023-04-10T14:48:57.997Z,99949.81
2023-04-10T14:51:28.206Z,99919.44
2023-04-10T14:53:56.877Z,99912.34
2023-04-10T14:56:26.015Z,99896.75
2023-04-10T14:58:54.598Z,99897.59
2023-04-10T15:01:23.409Z,99908.81
2023-04-10T15:03:56.121Z,99915.06
2023-04-10T15:06:28.504Z,99937.91
2023-04-10T15:08:58.596Z,99926.63
2023-04-10T15:11:27.297Z,99905.25
2023-04-10T15:13:56.121Z,99898.25
2023-04-10T15:16:25.011Z,99890.78
2023-04-10T15:18:53.565Z,99886.09
2023-04-10T15:21:22.121Z,99864.31
2023-04-10T15:23:50.853Z,99866.09
2023-04-10T15:26:27.104Z,99869.69
2023-04-10T15:28:56.658Z,99865.91
2023-04-10T15:31:25.497Z,99890.28
2023-04-10T15:33:55.772Z,99877.84
2023-04-10T15:36:24.526Z,99901.81
2023-04-10T15:38:53.339Z,99896.63
2023-04-10T15:41:23.099Z,99909.38
2023-04-10T15:43:53.611Z,99880.91
2023-04-10T15:46:22.421Z,99895.41
2023-04-10T15:48:50.937Z,99902.94
2023-04-10T15:51:19.239Z,99910.47
2023-04-10T15:53:47.852Z,99932.44
2023-04-10T15:56:16.864Z,99976.53
2023-04-10T15:58:45.827Z,100017.72
2023-04-10T16:01:15.933Z,100003.50
2023-04-10T16:03:46.041Z,100029.72
2023-04-10T16:06:15.061Z,100051.09
2023-04-10T16:11:49.555Z,100066.84
2023-04-10T16:14:19.561Z,100051.81
2023-04-10T16:16:49.929Z,100030.81
2023-04-10T16:19:19.083Z,99993.94
2023-04-10T16:21:47.717Z,99994.59
2023-04-10T16:24:16.474Z,99976.34
2023-04-10T16:26:45.129Z,99993.09
2023-04-10T16:29:13.941Z,100013.00
2023-04-10T16:31:42.690Z,100015.94
2023-04-10T16:34:13.980Z,100015.22
2023-04-10T16:36:43.605Z,100052.47
2023-04-10T16:39:12.510Z,100061.63
2023-04-10T16:41:41.251Z,100069.09
2023-04-10T16:44:11.009Z,100095.75
2023-04-10T16:46:39.839Z,100114.47
2023-04-10T16:49:08.467Z,100124.88
2023-04-10T16:51:38.736Z,100123.13
2023-04-10T16:54:08.295Z,100136.50
2023-04-10T16:56:37.018Z,100122.91
2023-04-10T16:59:05.821Z,100125.09
2023-04-10T17:01:40.002Z,100114.81
2023-04-10T17:04:09.633Z,100102.25
2023-04-10T17:06:39.851Z,100114.91
2023-04-10T17:09:10.982Z,100132.00
2023-04-10T17:11:39.689Z,100104.50
2023-04-10T17:14:10.588Z,100105.47
2023-04-10T17:16:39.231Z,100073.34
2023-04-10T17:19:07.985Z,100073.06
2023-04-10T17:21:36.571Z,100074.06
2023-04-10T17:24:07.042Z,100068.09
2023-04-10T17:26:35.929Z,100085.56
2023-04-10T17:29:04.598Z,100076.88
2023-04-10T17:31:33.311Z,100085.53
2023-04-10T17:34:01.897Z,100103.97
2023-04-10T17:36:32.606Z,100123.19
2023-04-10T17:39:02.522Z,100079.25
2023-04-10T17:41:32.869Z,100069.09
2023-04-10T17:44:02.942Z,100059.00
2023-04-10T17:46:31.706Z,100066.91
2023-04-10T17:49:01.885Z,100057.34
2023-04-10T17:51:31.920Z,100069.03
2023-04-10T17:54:01.672Z,100076.59
2023-04-10T17:56:33.824Z,100083.16
2023-04-10T17:59:03.347Z,100084.88
2023-04-10T18:01:32.295Z,100100.56
2023-04-10T18:04:03.402Z,100103.59
2023-04-10T18:06:33.412Z,100108.81
2023-04-10T18:09:02.001Z,100124.94
2023-04-10T18:11:30.757Z,100123.81
2023-04-10T18:14:00.580Z,100109.88
2023-04-10T18:16:30.077Z,100100.41
2023-04-10T18:18:59.921Z,100113.34
2023-04-10T18:21:28.610Z,100102.59
2023-04-10T18:23:57.200Z,100100.09
2023-04-10T18:26:25.769Z,100102.59
2023-04-10T18:28:54.702Z,100110.00
2023-04-10T18:31:25.620Z,100113.78
2023-04-10T18:34:04.132Z,100113.25
2023-04-10T18:36:37.827Z,100131.84
2023-04-10T18:39:06.585Z,100137.91
2023-04-10T18:41:35.449Z,100138.25
2023-04-10T18:44:05.776Z,100140.34
2023-04-10T18:46:36.434Z,100146.69
2023-04-10T18:49:05.068Z,100178.19
2023-04-10T18:51:36.656Z,100172.00
2023-04-10T18:54:09.641Z,100174.63
2023-04-10T18:56:38.746Z,100179.44
2023-04-10T18:59:07.365Z,100195.28
2023-04-10T19:01:40.246Z,100182.06
2023-04-10T19:04:10.075Z,100194.72
2023-04-10T19:06:41.391Z,100184.97
2023-04-10T19:09:10.202Z,100176.16
2023-04-10T19:11:39.118Z,100195.31
2023-04-10T19:14:07.853Z,100186.28
2023-04-10T19:16:38.164Z,100189.84
2023-04-10T19:19:06.964Z,100197.09
2023-04-10T19:21:36.512Z,100204.66
2023-04-10T19:24:05.336Z,100202.47
2023-04-10T19:26:34.270Z,100197.81
2023-04-10T19:29:02.844Z,100204.03
2023-04-10T19:31:31.619Z,100201.72
2023-04-10T19:34:04.191Z,100207.81
2023-04-10T19:36:32.535Z,100210.53
2023-04-10T19:39:01.136Z,100221.03
2023-04-10T19:41:30.047Z,100229.88
2023-04-10T19:43:59.055Z,100229.25
2023-04-10T19:46:32.809Z,100231.03
2023-04-10T19:49:04.354Z,100232.81
2023-04-10T19:51:33.775Z,100236.69
2023-04-10T19:54:03.478Z,100248.56
2023-04-10T19:56:31.884Z,100240.69
2023-04-10T19:59:00.830Z,100237.53
2023-04-10T20:01:29.779Z,100233.22
2023-04-10T20:03:58.505Z,100255.25
2023-04-10T20:06:28.959Z,100241.63
2023-04-10T20:08:58.164Z,100245.28
2023-04-10T20:11:31.092Z,100246.44
2023-04-10T20:13:59.664Z,100251.25
2023-04-10T20:16:29.662Z,100242.41
2023-04-10T20:18:58.488Z,100246.31
2023-04-10T20:21:29.189Z,100255.84
2023-04-10T20:23:59.491Z,100250.28
2023-04-10T20:26:28.445Z,100266.41
2023-04-10T20:28:57.681Z,100264.84
2023-04-10T20:31:27.612Z,100281.50
2023-04-10T20:33:57.856Z,100271.75
2023-04-10T20:36:28.081Z,100277.31
2023-04-10T20:38:56.974Z,100272.91
2023-04-10T20:41:26.455Z,100289.47
2023-04-10T20:43:56.237Z,100297.34
2023-04-10T20:46:27.444Z,100296.81
2023-04-10T20:48:58.555Z,100303.81
2023-04-10T20:51:30.259Z,100319.09
2023-04-10T20:53:59.100Z,100326.94
2023-04-10T20:56:36.837Z,100334.81
2023-04-10T20:59:11.780Z,100317.88
2023-04-10T21:01:40.545Z,100344.28
2023-04-10T21:04:11.544Z,100341.03
2023-04-10T21:06:41.694Z,100346.19
2023-04-10T21:09:11.317Z,100347.41
2023-04-10T21:11:39.891Z,100350.00
2023-04-10T21:14:08.617Z,100347.25
2023-04-10T21:16:41.607Z,100367.25
2023-04-10T21:19:10.430Z,100358.19
2023-04-10T21:21:40.728Z,100361.84
2023-04-10T21:24:09.181Z,100365.22
2023-04-10T21:26:38.203Z,100359.97
2023-04-10T21:29:06.938Z,100367.56
2023-04-10T21:31:35.576Z,100366.78
2023-04-10T21:34:04.154Z,100374.94
2023-04-10T21:36:34.026Z,100382.88
2023-04-10T21:39:04.052Z,100371.56
2023-04-10T21:41:32.768Z,100375.22
2023-04-10T21:44:01.190Z,100376.63
2023-04-10T21:46:30.269Z,100380.25
2023-04-10T21:49:00.211Z,100393.38
2023-04-10T21:51:32.921Z,100395.59
2023-04-10T21:54:01.474Z,100388.41
2023-04-10T21:56:31.437Z,100393.53
2023-04-10T21:59:02.850Z,100390.63
2023-04-10T22:01:32.601Z,100391.13
2023-04-10T22:04:01.286Z,100392.13
2023-04-10T22:06:29.987Z,100395.41
2023-04-10T22:08:58.499Z,100397.81
2023-04-10T22:11:27.382Z,100389.22
2023-04-10T22:14:02.765Z,100399.97
2023-04-10T22:16:37.911Z,100395.66
2023-04-10T22:19:06.401Z,100396.56
2023-04-10T22:21:35.088Z,100403.97
2023-04-10T22:24:05.857Z,100399.72
2023-04-10T22:26:35.689Z,100402.34
2023-04-10T22:29:06.339Z,100405.06
2023-04-10T22:31:34.953Z,100410.13
2023-04-10T22:34:05.789Z,100387.03
2023-04-10T22:36:35.065Z,100415.09
2023-04-10T22:39:03.940Z,100394.91
2023-04-10T22:41:33.448Z,100393.69
2023-04-10T22:44:02.025Z,100376.03
2023-04-10T22:46:32.336Z,100386.22
2023-04-10T22:49:00.882Z,100391.47
2023-04-10T22:51:29.528Z,100382.03
2023-04-10T22:53:58.378Z,100389.94
2023-04-10T22:56:29.476Z,100396.13
2023-04-10T22:58:58.104Z,100393.34
2023-04-10T23:01:26.469Z,100411.16
2023-04-10T23:03:56.604Z,100398.28
2023-04-10T23:06:26.396Z,100393.63
2023-04-10T23:08:55.098Z,100404.25
2023-04-10T23:11:24.186Z,100393.88
2023-04-10T23:13:54.065Z,100394.34
2023-04-10T23:16:23.466Z,100408.28
2023-04-10T23:18:52.344Z,100411.22
2023-04-10T23:21:23.629Z,100415.03
2023-04-10T23:23:51.986Z,100410.00
2023-04-10T23:26:20.726Z,100437.75
2023-04-10T23:28:49.694Z,100423.94
2023-04-10T23:31:18.569Z,100407.94
2023-04-10T23:33:47.501Z,100418.69
2023-04-10T23:36:16.241Z,100424.00
2023-04-10T23:38:46.367Z,100416.13
2023-04-10T23:41:14.894Z,100428.41
2023-04-10T23:43:43.203Z,100426.97
2023-04-10T23:46:11.781Z,100418.19
2023-04-10T23:48:40.418Z,100438.28
2023-04-10T23:51:10.677Z,100426.16
2023-04-10T23:53:39.079Z,100424.63
2023-04-10T23:56:10.071Z,100436.97
2023-04-10T23:58:38.570Z,100435.38
